Time;durP1;ratioP1;P1;durP2;ratioP2;P2;SDS_P1;SDS_P2;PMS_P1;PMS_P2;Temp;Humidity;BMP_temperature;BMP_pressure;BME280_temperature;BME280_humidity;BME280_pressure;Samples;Min_cycle;Max_cycle;Signal;HPM_P1;HPM_P2
2023/07/03 00:02:18;;;;;;;14.20;6.03;;;;;;;;;;5091680;28;20296;-65
2023/07/03 00:04:45;;;;;;;14.93;6.73;;;;;;;;;;5091660;28;20282;-65
2023/07/03 00:07:11;;;;;;;12.98;5.32;;;;;;;;;;5091769;28;20348;-65
2023/07/03 00:09:36;;;;;;;13.95;5.88;;;;;;;;;;5091904;28;20431;-66
2023/07/03 00:12:01;;;;;;;11.75;5.65;;;;;;;;;;5091714;28;20035;-65
2023/07/03 00:14:27;;;;;;;17.80;5.80;;;;;;;;;;5087446;28;20107;-65
2023/07/03 00:16:52;;;;;;;14.70;5.97;;;;;;;;;;5092205;28;20042;-66
2023/07/03 00:19:17;;;;;;;13.47;5.43;;;;;;;;;;5091695;28;20349;-66
2023/07/03 00:21:46;;;;;;;12.57;5.67;;;;;;;;;;5091535;28;20300;-66
2023/07/03 00:24:11;;;;;;;17.15;5.75;;;;;;;;;;5073058;28;20282;-66
2023/07/03 00:26:37;;;;;;;11.55;5.35;;;;;;;;;;5092253;28;20551;-66
2023/07/03 00:29:03;;;;;;;22.15;5.97;;;;;;;;;;5091173;28;20028;-66
2023/07/03 00:31:28;;;;;;;13.65;6.20;;;;;;;;;;5092040;28;20063;-67
2023/07/03 00:33:54;;;;;;;20.13;6.20;;;;;;;;;;5085319;28;20353;-65
2023/07/03 00:36:19;;;;;;;16.43;6.33;;;;;;;;;;5085453;28;20032;-65
2023/07/03 00:38:44;;;;;;;27.90;6.07;;;;;;;;;;5091820;28;20361;-67
2023/07/03 00:41:09;;;;;;;20.30;5.63;;;;;;;;;;5091728;28;20281;-65
2023/07/03 00:43:38;;;;;;;17.83;7.15;;;;;;;;;;5091970;28;20024;-65
2023/07/03 00:46:04;;;;;;;22.40;6.88;;;;;;;;;;5090741;28;20016;-65
2023/07/03 00:48:29;;;;;;;15.70;6.93;;;;;;;;;;5091386;28;20034;-65
2023/07/03 00:50:54;;;;;;;10.27;5.70;;;;;;;;;;5090717;28;20313;-66
2023/07/03 00:53:19;;;;;;;16.30;6.13;;;;;;;;;;5091134;28;20451;-65
2023/07/03 00:55:44;;;;;;;12.70;6.17;;;;;;;;;;5091571;28;20705;-65
2023/07/03 00:58:10;;;;;;;14.65;6.32;;;;;;;;;;5091811;28;20270;-65
2023/07/03 01:00:39;;;;;;;15.20;6.65;;;;;;;;;;5090286;28;20020;-65
2023/07/03 01:03:14;;;;;;;22.60;6.88;;;;;;;;;;5072671;28;20021;-65
2023/07/03 01:05:43;;;;;;;12.85;6.63;;;;;;;;;;5090953;28;20543;-65
2023/07/03 01:08:09;;;;;;;17.60;6.45;;;;;;;;;;5091330;28;20028;-65
2023/07/03 01:10:35;;;;;;;16.40;6.88;;;;;;;;;;5088798;28;20036;-65
2023/07/03 01:13:01;;;;;;;16.63;6.78;;;;;;;;;;5081520;28;20073;-65
2023/07/03 01:15:29;;;;;;;18.67;6.72;;;;;;;;;;5088433;28;20024;-65
2023/07/03 01:17:56;;;;;;;12.68;5.97;;;;;;;;;;5094658;28;20031;-65
2023/07/03 01:20:22;;;;;;;21.23;6.72;;;;;;;;;;5098183;28;20047;-65
2023/07/03 01:22:59;;;;;;;17.33;7.05;;;;;;;;;;5097945;28;20024;-66
2023/07/03 01:25:25;;;;;;;14.88;6.10;;;;;;;;;;5097412;28;20482;-66
2023/07/03 01:27:52;;;;;;;18.40;7.57;;;;;;;;;;5098131;28;20506;-66
2023/07/03 01:30:19;;;;;;;19.23;6.93;;;;;;;;;;5097271;28;20398;-66
2023/07/03 01:32:45;;;;;;;14.68;5.78;;;;;;;;;;5098189;28;20039;-64
2023/07/03 01:35:11;;;;;;;20.63;6.97;;;;;;;;;;5096841;28;20028;-66
2023/07/03 01:37:38;;;;;;;16.90;7.28;;;;;;;;;;5098044;28;20078;-65
2023/07/03 01:40:06;;;;;;;25.50;7.78;;;;;;;;;;5079572;28;20476;-65
2023/07/03 01:42:33;;;;;;;13.20;6.40;;;;;;;;;;5097729;28;20028;-65
2023/07/03 01:44:58;;;;;;;17.67;6.90;;;;;;;;;;5096565;28;20363;-66
2023/07/03 01:47:23;;;;;;;19.63;6.60;;;;;;;;;;5097607;28;20090;-65
2023/07/03 01:49:49;;;;;;;22.27;7.72;;;;;;;;;;5097106;28;20791;-65
2023/07/03 01:52:23;;;;;;;22.25;7.25;;;;;;;;;;5097971;28;20050;-65
2023/07/03 01:55:11;;;;;;;16.70;7.28;;;;;;;;;;5097391;28;20351;-65
2023/07/03 01:57:50;;;;;;;19.52;6.55;;;;;;;;;;5097565;28;20060;-65
2023/07/03 02:00:19;;;;;;;13.35;6.18;;;;;;;;;;5097631;28;20130;-65
2023/07/03 02:02:48;;;;;;;18.85;6.75;;;;;;;;;;5097772;28;20051;-65
2023/07/03 02:05:15;;;;;;;27.67;7.45;;;;;;;;;;5097958;28;20026;-65
2023/07/03 02:07:41;;;;;;;19.23;8.38;;;;;;;;;;5097599;28;20474;-65
2023/07/03 02:10:07;;;;;;;14.25;7.10;;;;;;;;;;5097013;28;20038;-66
2023/07/03 02:12:32;;;;;;;17.58;7.03;;;;;;;;;;5097044;28;20031;-66
2023/07/03 02:15:02;;;;;;;20.17;7.60;;;;;;;;;;5094685;28;20433;-66
2023/07/03 02:17:28;;;;;;;19.77;6.78;;;;;;;;;;5093304;28;20028;-65
2023/07/03 02:19:54;;;;;;;17.10;6.45;;;;;;;;;;5083986;28;20027;-66
2023/07/03 02:22:19;;;;;;;19.27;6.40;;;;;;;;;;5093718;28;20021;-66
2023/07/03 02:24:44;;;;;;;24.73;7.53;;;;;;;;;;5087770;28;20076;-66
2023/07/03 02:27:10;;;;;;;16.73;6.93;;;;;;;;;;5089174;28;20021;-66
2023/07/03 02:29:35;;;;;;;22.65;7.88;;;;;;;;;;5088376;28;20056;-65
2023/07/03 02:32:00;;;;;;;19.50;8.20;;;;;;;;;;5093776;28;20372;-65
2023/07/03 02:34:25;;;;;;;25.45;7.80;;;;;;;;;;5093723;28;20054;-65
2023/07/03 02:36:51;;;;;;;22.77;7.10;;;;;;;;;;5080105;28;20016;-65
2023/07/03 02:39:16;;;;;;;17.98;7.82;;;;;;;;;;5093286;28;20797;-65
2023/07/03 02:41:41;;;;;;;24.38;8.30;;;;;;;;;;5094170;28;20024;-65
2023/07/03 02:44:07;;;;;;;23.02;8.05;;;;;;;;;;5093834;28;20031;-66
2023/07/03 02:46:32;;;;;;;13.63;6.50;;;;;;;;;;5093429;28;20030;-65
2023/07/03 02:48:57;;;;;;;17.33;7.15;;;;;;;;;;5093746;28;20024;-65
2023/07/03 02:51:22;;;;;;;25.87;8.43;;;;;;;;;;5093349;28;20028;-66
2023/07/03 02:53:48;;;;;;;21.65;7.35;;;;;;;;;;5080083;28;20637;-65
2023/07/03 02:56:13;;;;;;;27.57;7.40;;;;;;;;;;5093919;28;20030;-66
2023/07/03 02:58:38;;;;;;;26.42;7.80;;;;;;;;;;5093147;28;20779;-66
2023/07/03 03:01:04;;;;;;;18.93;7.20;;;;;;;;;;5093574;28;20048;-66
2023/07/03 03:03:29;;;;;;;22.77;8.68;;;;;;;;;;5092811;28;20274;-66
2023/07/03 03:05:55;;;;;;;22.73;8.65;;;;;;;;;;5067255;28;20024;-65
2023/07/03 03:08:21;;;;;;;19.40;7.45;;;;;;;;;;5091830;28;20098;-64
2023/07/03 03:10:47;;;;;;;22.70;8.55;;;;;;;;;;5092850;28;20101;-66
2023/07/03 03:13:12;;;;;;;23.38;7.95;;;;;;;;;;5092723;28;20425;-66
2023/07/03 03:15:37;;;;;;;26.88;6.97;;;;;;;;;;5093246;28;20069;-66
2023/07/03 03:18:03;;;;;;;17.10;7.88;;;;;;;;;;5092625;28;20032;-66
2023/07/03 03:20:28;;;;;;;25.83;8.32;;;;;;;;;;5086318;28;20020;-66
2023/07/03 03:22:53;;;;;;;19.30;7.40;;;;;;;;;;5093323;28;20021;-65
2023/07/03 03:25:19;;;;;;;24.45;7.95;;;;;;;;;;5093208;28;20373;-67
2023/07/03 03:27:44;;;;;;;20.02;8.52;;;;;;;;;;5082109;28;20027;-67
2023/07/03 03:30:09;;;;;;;21.02;8.18;;;;;;;;;;5093275;28;20028;-66
2023/07/03 03:32:35;;;;;;;23.42;7.40;;;;;;;;;;5093069;28;20039;-65
2023/07/03 03:35:00;;;;;;;19.80;8.17;;;;;;;;;;5090804;28;20061;-66
2023/07/03 03:37:26;;;;;;;26.83;8.57;;;;;;;;;;5093450;28;20266;-66
2023/07/03 03:39:51;;;;;;;25.25;8.93;;;;;;;;;;5092621;28;20504;-66
2023/07/03 03:42:16;;;;;;;17.75;7.88;;;;;;;;;;5092871;28;20475;-66
2023/07/03 03:44:42;;;;;;;26.70;9.82;;;;;;;;;;5091454;28;20043;-66
2023/07/03 03:47:07;;;;;;;22.58;9.05;;;;;;;;;;5092188;28;20111;-66
2023/07/03 03:49:32;;;;;;;18.85;8.10;;;;;;;;;;5091672;28;20016;-66
2023/07/03 03:51:57;;;;;;;22.52;8.88;;;;;;;;;;5089778;28;20107;-66
2023/07/03 03:54:23;;;;;;;24.98;7.80;;;;;;;;;;5091576;28;20024;-66
2023/07/03 03:56:48;;;;;;;23.83;8.27;;;;;;;;;;5090860;28;20056;-66
2023/07/03 03:59:13;;;;;;;22.50;8.38;;;;;;;;;;5089394;28;20028;-66
2023/07/03 04:01:39;;;;;;;32.15;8.35;;;;;;;;;;5091646;28;20429;-66
2023/07/03 04:04:05;;;;;;;17.20;7.93;;;;;;;;;;5090245;28;20805;-66
2023/07/03 04:06:30;;;;;;;20.45;8.20;;;;;;;;;;5091118;28;20016;-66
2023/07/03 04:08:58;;;;;;;22.88;8.65;;;;;;;;;;5091865;28;20047;-66
2023/07/03 04:11:24;;;;;;;33.72;8.88;;;;;;;;;;5068847;28;20043;-66
2023/07/03 04:13:49;;;;;;;28.92;10.10;;;;;;;;;;5054168;28;20059;-65
2023/07/03 04:16:15;;;;;;;22.10;8.40;;;;;;;;;;5091610;28;20540;-65
2023/07/03 04:18:40;;;;;;;23.40;9.18;;;;;;;;;;5092554;28;20659;-67
2023/07/03 04:21:06;;;;;;;19.17;8.77;;;;;;;;;;5092251;28;20031;-65
2023/07/03 04:23:31;;;;;;;20.20;7.80;;;;;;;;;;5091750;28;20015;-65
2023/07/03 04:25:57;;;;;;;17.75;7.50;;;;;;;;;;5091977;28;20028;-65
2023/07/03 04:28:22;;;;;;;34.85;8.65;;;;;;;;;;5078902;28;20068;-66
2023/07/03 04:30:48;;;;;;;19.90;8.68;;;;;;;;;;5091469;28;20035;-65
2023/07/03 04:33:13;;;;;;;29.23;9.27;;;;;;;;;;5092276;28;20027;-66
2023/07/03 04:35:38;;;;;;;22.60;7.75;;;;;;;;;;5092392;28;20063;-65
2023/07/03 04:38:04;;;;;;;26.27;9.15;;;;;;;;;;5092101;28;20020;-66
2023/07/03 04:40:29;;;;;;;17.50;8.23;;;;;;;;;;5090928;28;20024;-66
2023/07/03 04:42:55;;;;;;;21.42;8.45;;;;;;;;;;5091924;28;20035;-65
2023/07/03 04:45:21;;;;;;;31.13;8.40;;;;;;;;;;5092111;28;20104;-65
2023/07/03 04:47:47;;;;;;;18.25;8.77;;;;;;;;;;5090027;28;20115;-66
2023/07/03 04:50:14;;;;;;;25.10;8.77;;;;;;;;;;5088486;28;20122;-66
2023/07/03 04:52:40;;;;;;;20.50;9.05;;;;;;;;;;5091165;28;20067;-66
2023/07/03 04:55:06;;;;;;;36.65;8.93;;;;;;;;;;5091755;28;20471;-65
2023/07/03 04:57:31;;;;;;;20.58;8.48;;;;;;;;;;5092346;28;20026;-65
2023/07/03 04:59:56;;;;;;;22.70;9.20;;;;;;;;;;5091028;28;20081;-65
2023/07/03 05:02:22;;;;;;;20.43;9.47;;;;;;;;;;5091489;28;20467;-66
2023/07/03 05:04:47;;;;;;;20.45;8.82;;;;;;;;;;5091920;28;20331;-66
2023/07/03 05:07:12;;;;;;;17.20;7.78;;;;;;;;;;5091296;28;20028;-66
2023/07/03 05:09:38;;;;;;;26.48;9.20;;;;;;;;;;5090608;28;20028;-65
2023/07/03 05:12:03;;;;;;;22.30;8.52;;;;;;;;;;5090477;28;20127;-65
2023/07/03 05:14:28;;;;;;;18.98;7.60;;;;;;;;;;5090699;28;20020;-66
2023/07/03 05:16:54;;;;;;;21.13;9.13;;;;;;;;;;5090461;28;20060;-66
2023/07/03 05:19:19;;;;;;;23.95;9.60;;;;;;;;;;5090626;28;20288;-66
2023/07/03 05:21:44;;;;;;;23.47;8.70;;;;;;;;;;5090784;28;20046;-65
2023/07/03 05:24:09;;;;;;;20.13;8.43;;;;;;;;;;5090861;28;20343;-65
2023/07/03 05:26:35;;;;;;;23.45;9.55;;;;;;;;;;5084545;28;20684;-65
2023/07/03 05:29:00;;;;;;;30.25;10.27;;;;;;;;;;5082854;28;20036;-65
2023/07/03 05:31:25;;;;;;;29.52;9.98;;;;;;;;;;5089875;28;20024;-65
2023/07/03 05:33:53;;;;;;;31.30;10.07;;;;;;;;;;5090648;28;20090;-65
2023/07/03 05:36:18;;;;;;;20.15;9.48;;;;;;;;;;5090484;28;20028;-65
2023/07/03 05:38:44;;;;;;;28.00;9.48;;;;;;;;;;5090636;28;20032;-66
2023/07/03 05:41:09;;;;;;;21.40;9.23;;;;;;;;;;5090669;28;20031;-66
2023/07/03 05:43:35;;;;;;;28.17;8.40;;;;;;;;;;5090396;28;20024;-64
2023/07/03 05:46:00;;;;;;;28.13;8.60;;;;;;;;;;5088666;28;20138;-64
2023/07/03 05:48:25;;;;;;;22.50;8.52;;;;;;;;;;5090002;28;20282;-65
2023/07/03 05:50:50;;;;;;;19.67;9.90;;;;;;;;;;5090048;28;20024;-65
2023/07/03 05:53:16;;;;;;;20.30;7.88;;;;;;;;;;5090602;28;20086;-64
2023/07/03 05:55:41;;;;;;;20.95;9.13;;;;;;;;;;5090169;28;20028;-65
2023/07/03 05:58:06;;;;;;;23.23;9.15;;;;;;;;;;5084261;28;20063;-64
2023/07/03 06:00:32;;;;;;;26.25;8.98;;;;;;;;;;5084980;28;20107;-65
2023/07/03 06:02:58;;;;;;;32.95;10.05;;;;;;;;;;5090973;28;20647;-64
2023/07/03 06:05:24;;;;;;;21.67;9.35;;;;;;;;;;5085708;28;20047;-65
2023/07/03 06:07:49;;;;;;;25.27;9.68;;;;;;;;;;5094045;28;20478;-65
2023/07/03 06:10:15;;;;;;;23.83;8.65;;;;;;;;;;5093886;28;20024;-65
2023/07/03 06:12:40;;;;;;;17.38;9.25;;;;;;;;;;5093352;28;20157;-64
2023/07/03 06:15:06;;;;;;;21.63;9.15;;;;;;;;;;5093094;28;20085;-64
2023/07/03 06:17:31;;;;;;;20.38;8.70;;;;;;;;;;5093358;28;20050;-64
2023/07/03 06:19:56;;;;;;;21.52;8.75;;;;;;;;;;5093291;28;20400;-64
2023/07/03 06:22:22;;;;;;;19.45;8.48;;;;;;;;;;5093187;28;20032;-65
2023/07/03 06:24:47;;;;;;;24.80;8.15;;;;;;;;;;5091901;28;20031;-64
2023/07/03 06:27:12;;;;;;;19.48;8.57;;;;;;;;;;5092739;28;20509;-65
2023/07/03 06:29:38;;;;;;;30.23;10.07;;;;;;;;;;5079620;28;20095;-65
2023/07/03 06:32:04;;;;;;;23.65;10.55;;;;;;;;;;5094108;28;20059;-65
2023/07/03 06:34:29;;;;;;;16.77;8.60;;;;;;;;;;5092928;28;20471;-65
2023/07/03 06:36:55;;;;;;;23.77;8.40;;;;;;;;;;5093548;28;20027;-66
2023/07/03 06:39:20;;;;;;;26.63;9.90;;;;;;;;;;5093055;28;20056;-66
2023/07/03 06:41:46;;;;;;;21.08;8.25;;;;;;;;;;5087900;28;20039;-65
2023/07/03 06:44:12;;;;;;;21.13;8.85;;;;;;;;;;5093560;28;20099;-64
2023/07/03 06:46:37;;;;;;;24.15;8.80;;;;;;;;;;5093231;28;20081;-65
2023/07/03 06:49:03;;;;;;;16.33;8.07;;;;;;;;;;5068449;28;20825;-65
2023/07/03 06:51:28;;;;;;;30.55;9.40;;;;;;;;;;5072410;28;20282;-65
2023/07/03 06:53:54;;;;;;;18.83;8.07;;;;;;;;;;5093204;28;20054;-65
2023/07/03 06:56:19;;;;;;;14.20;7.07;;;;;;;;;;5092323;28;20035;-65
2023/07/03 06:58:47;;;;;;;21.38;7.93;;;;;;;;;;5091065;28;20085;-64
2023/07/03 07:01:13;;;;;;;21.60;8.48;;;;;;;;;;5081139;28;20028;-64
2023/07/03 07:03:38;;;;;;;15.80;7.65;;;;;;;;;;5091352;28;20584;-66
2023/07/03 07:06:14;;;;;;;25.08;6.93;;;;;;;;;;5092710;28;20028;-64
2023/07/03 07:08:39;;;;;;;18.02;7.68;;;;;;;;;;5091363;28;20028;-64
2023/07/03 07:11:11;;;;;;;17.05;7.25;;;;;;;;;;5079831;28;20045;-65
2023/07/03 07:13:38;;;;;;;18.83;8.13;;;;;;;;;;5093208;28;20051;-65
2023/07/03 07:16:03;;;;;;;34.15;7.18;;;;;;;;;;5092455;28;20024;-65
2023/07/03 07:18:28;;;;;;;15.85;6.88;;;;;;;;;;5093002;28;20466;-65
2023/07/03 07:20:54;;;;;;;16.97;7.40;;;;;;;;;;5093278;28;20019;-64
2023/07/03 07:23:19;;;;;;;18.73;6.65;;;;;;;;;;5092786;28;20278;-64
2023/07/03 07:25:51;;;;;;;12.65;6.38;;;;;;;;;;5093254;28;20017;-65
2023/07/03 07:28:16;;;;;;;13.48;6.28;;;;;;;;;;5079278;28;20032;-65
2023/07/03 07:30:41;;;;;;;13.43;6.50;;;;;;;;;;5093059;28;20028;-64
2023/07/03 07:33:07;;;;;;;15.47;6.40;;;;;;;;;;5092592;28;20292;-65
2023/07/03 07:35:34;;;;;;;11.20;6.13;;;;;;;;;;5093220;28;20362;-65
2023/07/03 07:37:59;;;;;;;23.77;6.05;;;;;;;;;;5072857;28;20271;-65
2023/07/03 07:40:24;;;;;;;19.65;6.22;;;;;;;;;;5085688;28;20099;-64
2023/07/03 07:42:49;;;;;;;14.73;6.67;;;;;;;;;;5092696;28;20028;-64
2023/07/03 07:45:15;;;;;;;13.90;5.47;;;;;;;;;;5084761;28;20828;-66
2023/07/03 07:47:40;;;;;;;14.88;6.40;;;;;;;;;;5089150;28;20105;-65
2023/07/03 07:50:05;;;;;;;16.80;5.70;;;;;;;;;;5084139;28;20119;-65
2023/07/03 07:52:31;;;;;;;18.63;6.20;;;;;;;;;;5069324;28;20325;-65
2023/07/03 07:54:56;;;;;;;16.43;6.03;;;;;;;;;;5092869;28;20043;-65
2023/07/03 07:57:22;;;;;;;16.30;6.60;;;;;;;;;;5092620;28;20740;-64
2023/07/03 07:59:47;;;;;;;17.35;6.40;;;;;;;;;;5092735;28;20067;-65
2023/07/03 08:02:12;;;;;;;19.43;6.07;;;;;;;;;;5092173;28;20031;-65
2023/07/03 08:04:38;;;;;;;11.13;6.03;;;;;;;;;;5092658;28;20282;-65
2023/07/03 08:07:03;;;;;;;20.20;6.37;;;;;;;;;;5092316;28;20811;-66
2023/07/03 08:09:28;;;;;;;10.88;4.63;;;;;;;;;;5092763;28;20622;-65
2023/07/03 08:11:53;;;;;;;16.40;6.20;;;;;;;;;;5086155;28;20024;-66
2023/07/03 08:14:19;;;;;;;14.07;5.87;;;;;;;;;;5092167;28;20052;-65
2023/07/03 08:16:44;;;;;;;18.20;6.63;;;;;;;;;;5091720;28;20270;-66
2023/07/03 08:19:09;;;;;;;13.60;5.25;;;;;;;;;;5092420;28;20028;-66
2023/07/03 08:21:34;;;;;;;13.90;5.90;;;;;;;;;;5081067;28;20020;-65
2023/07/03 08:24:00;;;;;;;16.30;5.93;;;;;;;;;;5084433;28;20360;-66
2023/07/03 08:26:25;;;;;;;13.83;6.70;;;;;;;;;;5082579;28;20032;-66
2023/07/03 08:28:50;;;;;;;10.90;5.70;;;;;;;;;;5071882;28;20275;-65
2023/07/03 08:31:16;;;;;;;13.70;5.80;;;;;;;;;;5088852;28;20038;-67
2023/07/03 08:33:41;;;;;;;15.05;6.65;;;;;;;;;;5091899;28;20353;-66
2023/07/03 08:36:07;;;;;;;22.02;6.43;;;;;;;;;;5091932;28;20107;-66
2023/07/03 08:38:32;;;;;;;25.23;6.85;;;;;;;;;;5091766;28;20020;-65
2023/07/03 08:40:58;;;;;;;18.48;5.90;;;;;;;;;;5092023;28;20475;-65
2023/07/03 08:43:27;;;;;;;14.23;6.22;;;;;;;;;;5092631;28;20413;-66
2023/07/03 08:45:53;;;;;;;18.40;6.90;;;;;;;;;;5091749;28;20035;-65
2023/07/03 08:48:26;;;;;;;14.25;5.75;;;;;;;;;;5091617;28;20028;-66
2023/07/03 08:50:52;;;;;;;16.10;6.07;;;;;;;;;;5091359;28;20115;-65
2023/07/03 08:53:19;;;;;;;13.52;6.47;;;;;;;;;;5092073;28;20082;-65
2023/07/03 08:55:56;;;;;;;14.73;6.20;;;;;;;;;;5091683;28;20475;-65
2023/07/03 08:58:21;;;;;;;18.85;5.30;;;;;;;;;;5091884;28;20028;-65
2023/07/03 09:00:55;;;;;;;16.93;5.23;;;;;;;;;;5091161;28;20112;-64
2023/07/03 09:03:28;;;;;;;12.98;6.15;;;;;;;;;;5091929;28;20364;-65
2023/07/03 09:06:03;;;;;;;11.13;6.03;;;;;;;;;;5091413;28;20024;-65
2023/07/03 09:08:29;;;;;;;;;;;;;;;;;;5091812;28;20039;-64
2023/07/03 09:10:55;;;;;;;10.13;5.53;;;;;;;;;;5073244;28;19912;-64
2023/07/03 09:13:31;;;;;;;26.42;6.35;;;;;;;;;;5091130;28;20020;-64
2023/07/03 09:16:02;;;;;;;12.50;5.45;;;;;;;;;;5086790;28;20035;-65
2023/07/03 09:18:32;;;;;;;13.70;5.78;;;;;;;;;;5090997;28;20031;-64
2023/07/03 09:20:57;;;;;;;13.55;5.68;;;;;;;;;;5090978;28;20050;-64
2023/07/03 09:23:33;;;;;;;11.43;5.75;;;;;;;;;;5091259;28;20355;-64
2023/07/03 09:26:01;;;;;;;15.45;5.68;;;;;;;;;;5090863;28;20131;-64
2023/07/03 09:28:27;;;;;;;12.88;5.47;;;;;;;;;;5089259;28;20496;-64
2023/07/03 09:30:55;;;;;;;16.42;5.50;;;;;;;;;;5077439;28;20048;-64
2023/07/03 09:33:20;;;;;;;14.10;6.63;;;;;;;;;;5090811;28;20020;-64
2023/07/03 09:35:47;;;;;;;16.27;6.07;;;;;;;;;;5091165;28;20107;-64
2023/07/03 09:38:34;;;;;;;13.32;6.18;;;;;;;;;;5091731;28;20066;-64
2023/07/03 09:41:02;;;;;;;17.52;6.55;;;;;;;;;;5094663;28;20048;-64
2023/07/03 09:43:29;;;;;;;18.77;6.95;;;;;;;;;;5091935;28;20032;-64
2023/07/03 09:46:06;;;;;;;10.85;6.25;;;;;;;;;;5094143;28;20039;-65
2023/07/03 09:48:32;;;;;;;15.18;6.07;;;;;;;;;;5094490;28;20107;-65
2023/07/03 09:50:57;;;;;;;15.48;6.30;;;;;;;;;;5094670;28;20102;-65
2023/07/03 09:53:24;;;;;;;16.90;6.78;;;;;;;;;;5094804;28;20434;-66
2023/07/03 09:55:57;;;;;;;20.80;7.53;;;;;;;;;;5094311;28;20024;-65
2023/07/03 09:58:23;;;;;;;19.77;6.93;;;;;;;;;;5094851;28;20036;-66
2023/07/03 10:00:49;;;;;;;11.48;5.75;;;;;;;;;;5091001;28;20081;-64
2023/07/03 10:03:25;;;;;;;13.73;6.00;;;;;;;;;;5094048;28;20103;-65
2023/07/03 10:05:50;;;;;;;15.23;6.32;;;;;;;;;;5094147;28;20031;-65
2023/07/03 10:08:18;;;;;;;11.98;6.80;;;;;;;;;;5094261;28;20031;-67
2023/07/03 10:10:44;;;;;;;14.90;6.28;;;;;;;;;;5093955;28;20505;-65
2023/07/03 10:13:38;;;;;;;12.70;6.85;;;;;;;;;;5093947;28;20024;-65
2023/07/03 10:16:04;;;;;;;15.13;7.10;;;;;;;;;;5065177;28;20115;-65
2023/07/03 10:18:31;;;;;;;11.88;6.03;;;;;;;;;;5093936;28;20055;-65
2023/07/03 10:20:58;;;;;;;15.30;6.65;;;;;;;;;;5094550;28;20431;-66
2023/07/03 10:23:29;;;;;;;13.73;6.18;;;;;;;;;;5093800;28;20020;-65
2023/07/03 10:26:04;;;;;;;9.90;5.63;;;;;;;;;;5091059;28;20035;-65
2023/07/03 10:28:34;;;;;;;13.18;6.68;;;;;;;;;;5094100;28;20036;-66
2023/07/03 10:31:02;;;;;;;11.13;6.10;;;;;;;;;;5081011;28;20055;-67
2023/07/03 10:33:30;;;;;;;11.65;5.97;;;;;;;;;;5093703;28;20035;-67
2023/07/03 10:35:57;;;;;;;17.80;5.47;;;;;;;;;;5093698;28;20035;-66
2023/07/03 10:38:34;;;;;;;14.63;5.80;;;;;;;;;;5093951;28;20024;-66
2023/07/03 10:41:07;;;;;;;10.55;5.60;;;;;;;;;;5094064;28;20024;-66
2023/07/03 10:43:35;;;;;;;17.02;5.45;;;;;;;;;;5087893;28;20103;-64
2023/07/03 10:46:05;;;;;;;12.63;4.90;;;;;;;;;;5093375;28;20097;-64
2023/07/03 10:48:33;;;;;;;13.18;4.38;;;;;;;;;;5094046;28;20035;-66
2023/07/03 10:51:00;;;;;;;13.55;5.50;;;;;;;;;;5092086;28;20497;-66
2023/07/03 10:53:36;;;;;;;12.10;4.95;;;;;;;;;;5093497;28;20036;-65
2023/07/03 10:56:05;;;;;;;10.57;4.88;;;;;;;;;;5093566;28;20050;-67
2023/07/03 10:58:50;;;;;;;13.77;4.90;;;;;;;;;;5093429;28;20475;-67
2023/07/03 11:01:23;;;;;;;18.52;5.28;;;;;;;;;;5083575;28;20028;-68
2023/07/03 11:04:07;;;;;;;12.75;4.97;;;;;;;;;;5092673;28;20507;-65
2023/07/03 11:06:45;;;;;;;11.35;5.30;;;;;;;;;;5093761;28;20111;-65
2023/07/03 11:09:21;;;;;;;15.65;4.70;;;;;;;;;;5093687;28;20028;-65
2023/07/03 11:11:56;;;;;;;9.30;4.28;;;;;;;;;;5079939;28;20494;-64
2023/07/03 11:14:26;;;;;;;11.60;4.93;;;;;;;;;;5093125;28;20043;-66
2023/07/03 11:16:59;;;;;;;15.85;5.45;;;;;;;;;;5092900;28;20086;-67
2023/07/03 11:19:29;;;;;;;11.63;4.78;;;;;;;;;;5093516;28;20021;-67
2023/07/03 11:21:54;;;;;;;13.10;5.35;;;;;;;;;;5092751;28;20046;-66
2023/07/03 11:24:26;;;;;;;13.93;5.10;;;;;;;;;;5093225;28;20123;-65
2023/07/03 11:26:57;;;;;;;20.88;5.30;;;;;;;;;;5085491;28;20274;-66
2023/07/03 11:29:23;;;;;;;9.65;4.40;;;;;;;;;;5091872;28;20157;-67
2023/07/03 11:31:49;;;;;;;24.02;5.22;;;;;;;;;;5092433;28;20484;-66
2023/07/03 11:34:15;;;;;;;20.55;5.50;;;;;;;;;;5089296;28;20551;-66
2023/07/03 11:36:42;;;;;;;13.50;5.47;;;;;;;;;;5092985;28;20130;-65
2023/07/03 11:39:14;;;;;;;12.57;5.38;;;;;;;;;;5092413;28;20092;-65
2023/07/03 11:41:44;;;;;;;17.63;5.43;;;;;;;;;;5093145;28;20032;-67
2023/07/03 11:44:16;;;;;;;10.30;5.18;;;;;;;;;;5088756;28;20112;-68
2023/07/03 11:46:41;;;;;;;12.07;5.40;;;;;;;;;;5092686;28;20073;-69
2023/07/03 11:49:10;;;;;;;11.38;4.53;;;;;;;;;;5092803;28;20020;-67
2023/07/03 11:51:37;;;;;;;8.63;4.25;;;;;;;;;;5092529;28;20028;-66
2023/07/03 11:54:14;;;;;;;11.02;5.20;;;;;;;;;;5092549;28;20063;-67
2023/07/03 11:56:39;;;;;;;11.35;4.82;;;;;;;;;;5082183;28;20028;-66
2023/07/03 11:59:09;;;;;;;11.90;5.20;;;;;;;;;;5083744;28;21257;-66
2023/07/03 12:01:36;;;;;;;16.38;4.70;;;;;;;;;;5087974;28;20034;-65
2023/07/03 12:04:06;;;;;;;18.52;5.63;;;;;;;;;;5090713;28;20034;-67
2023/07/03 12:06:40;;;;;;;15.10;5.10;;;;;;;;;;5091447;28;20363;-66
2023/07/03 12:09:05;;;;;;;;;;;;;;;;;;5083690;28;20097;-66
2023/07/03 12:11:50;;;;;;;9.25;4.75;;;;;;;;;;5064922;28;19920;-64
2023/07/03 12:14:35;;;;;;;12.32;5.18;;;;;;;;;;5082923;28;20040;-66
2023/07/03 12:17:00;;;;;;;11.07;5.10;;;;;;;;;;5090923;28;20027;-65
2023/07/03 12:19:30;;;;;;;9.23;4.13;;;;;;;;;;5085641;28;20020;-67
2023/07/03 12:21:55;;;;;;;7.88;4.68;;;;;;;;;;5046384;28;21154;-66
2023/07/03 12:24:28;;;;;;;11.15;4.55;;;;;;;;;;5047924;28;20028;-67
2023/07/03 12:27:02;;;;;;;7.13;4.22;;;;;;;;;;5038187;28;20032;-64
2023/07/03 12:29:28;;;;;;;12.10;4.95;;;;;;;;;;5074796;28;20544;-66
2023/07/03 12:31:54;;;;;;;10.45;4.25;;;;;;;;;;5047948;28;20039;-66
2023/07/03 12:34:22;;;;;;;9.70;4.03;;;;;;;;;;5047134;28;20024;-65
2023/07/03 12:36:48;;;;;;;13.18;4.10;;;;;;;;;;5039565;28;20055;-67
2023/07/03 12:39:14;;;;;;;14.40;4.63;;;;;;;;;;5047635;28;20034;-67
2023/07/03 12:41:40;;;;;;;13.00;5.15;;;;;;;;;;5047093;28;20035;-66
2023/07/03 12:44:06;;;;;;;9.82;4.53;;;;;;;;;;5044294;28;20009;-65
2023/07/03 12:46:34;;;;;;;10.27;5.07;;;;;;;;;;5079077;28;20063;-66
2023/07/03 12:49:13;;;;;;;12.88;4.68;;;;;;;;;;5091417;28;20378;-67
2023/07/03 12:51:56;;;;;;;8.50;4.07;;;;;;;;;;5090567;28;20099;-66
2023/07/03 12:54:22;;;;;;;16.92;4.82;;;;;;;;;;5090800;28;20024;-67
2023/07/03 12:56:49;;;;;;;14.27;3.97;;;;;;;;;;5090406;28;20043;-66
2023/07/03 12:59:16;;;;;;;8.93;3.83;;;;;;;;;;5090521;28;20036;-67
2023/07/03 13:01:42;;;;;;;8.20;4.30;;;;;;;;;;5090825;28;20020;-68
2023/07/03 13:04:09;;;;;;;12.90;3.90;;;;;;;;;;5079603;28;20478;-67
2023/07/03 13:06:34;;;;;;;8.60;3.88;;;;;;;;;;5089809;28;20016;-65
2023/07/03 13:09:00;;;;;;;10.18;5.25;;;;;;;;;;5082898;28;20035;-64
2023/07/03 13:11:33;;;;;;;10.90;4.35;;;;;;;;;;5090255;28;20040;-71
2023/07/03 13:14:06;;;;;;;12.68;4.47;;;;;;;;;;5090037;28;20016;-64
2023/07/03 13:16:31;;;;;;;10.23;4.47;;;;;;;;;;5090943;28;20035;-65
2023/07/03 13:19:00;;;;;;;21.40;5.47;;;;;;;;;;5090678;28;20020;-64
2023/07/03 13:21:25;;;;;;;11.82;4.70;;;;;;;;;;5090880;28;20285;-65
2023/07/03 13:23:50;;;;;;;10.68;4.38;;;;;;;;;;5089908;28;20032;-66
2023/07/03 13:26:21;;;;;;;12.55;4.32;;;;;;;;;;5087325;28;20036;-65
2023/07/03 13:28:51;;;;;;;11.48;4.18;;;;;;;;;;5084788;28;20023;-63
2023/07/03 13:31:16;;;;;;;10.45;4.90;;;;;;;;;;5082907;28;20824;-70
2023/07/03 13:33:59;;;;;;;14.63;4.33;;;;;;;;;;5089339;28;20027;-67
2023/07/03 13:36:30;;;;;;;7.95;4.25;;;;;;;;;;5074687;28;20322;-70
2023/07/03 13:39:18;;;;;;;9.95;5.13;;;;;;;;;;5090119;28;20062;-65
2023/07/03 13:41:43;;;;;;;13.82;5.15;;;;;;;;;;5082214;28;20539;-65
2023/07/03 13:44:10;;;;;;;10.55;4.43;;;;;;;;;;5090161;28;20020;-65
2023/07/03 13:46:36;;;;;;;10.95;4.90;;;;;;;;;;5090727;28;20023;-67
2023/07/03 13:49:02;;;;;;;12.55;4.85;;;;;;;;;;5090257;28;20040;-66
2023/07/03 13:51:28;;;;;;;10.68;5.47;;;;;;;;;;5089293;28;20124;-67
2023/07/03 13:53:53;;;;;;;8.80;4.72;;;;;;;;;;5090784;28;20027;-66
2023/07/03 13:56:19;;;;;;;12.70;5.25;;;;;;;;;;5083387;28;20024;-66
2023/07/03 13:58:45;;;;;;;12.33;4.73;;;;;;;;;;5056480;28;20024;-68
2023/07/03 14:01:10;;;;;;;11.38;5.53;;;;;;;;;;5046864;28;21059;-67
2023/07/03 14:03:36;;;;;;;14.70;5.43;;;;;;;;;;5044749;28;20091;-66
2023/07/03 14:06:01;;;;;;;15.40;5.90;;;;;;;;;;5027655;28;20842;-67
2023/07/03 14:08:28;;;;;;;14.65;5.22;;;;;;;;;;5044767;28;20028;-67
2023/07/03 14:10:53;;;;;;;9.43;5.20;;;;;;;;;;5016866;28;20180;-67
2023/07/03 14:13:19;;;;;;;9.85;4.88;;;;;;;;;;5033446;28;20556;-66
2023/07/03 14:15:44;;;;;;;13.30;5.40;;;;;;;;;;5047239;28;20031;-67
2023/07/03 14:18:09;;;;;;;15.30;5.70;;;;;;;;;;5048378;28;21081;-68
2023/07/03 14:20:35;;;;;;;10.93;4.75;;;;;;;;;;5081804;28;20312;-65
2023/07/03 14:23:00;;;;;;;12.32;5.80;;;;;;;;;;5076852;28;20036;-66
2023/07/03 14:25:26;;;;;;;12.68;7.50;;;;;;;;;;5091812;28;20024;-66
2023/07/03 14:27:51;;;;;;;15.20;7.35;;;;;;;;;;5079778;28;20024;-67
2023/07/03 14:30:17;;;;;;;17.17;7.38;;;;;;;;;;5093843;28;20040;-67
2023/07/03 14:32:42;;;;;;;11.93;5.75;;;;;;;;;;5092845;28;20395;-68